Time;durP1;ratioP1;P1;durP2;ratioP2;P2;SDS_P1;SDS_P2;PMS_P1;PMS_P2;Temp;Humidity;BMP_temperature;BMP_pressure;BME280_temperature;BME280_humidity;BME280_pressure;Samples;Min_cycle;Max_cycle;Signal;HPM_P1;HPM_P2
2021/12/29 00:00:10;;;;;;;0.00;0.00;;;5.20;99.90;;;;;;5002891;28;20054;-59
2021/12/29 00:02:35;;;;;;;0.00;0.00;;;5.20;99.90;;;;;;5002696;28;20050;-59
2021/12/29 00:05:01;;;;;;;0.00;0.00;;;5.20;99.90;;;;;;5003213;28;20156;-59
2021/12/29 00:07:27;;;;;;;0.00;0.00;;;5.20;99.90;;;;;;5000989;28;20056;-59
2021/12/29 00:09:55;;;;;;;0.00;0.00;;;5.20;99.90;;;;;;5001974;28;20053;-59
2021/12/29 00:12:25;;;;;;;0.00;0.00;;;5.10;99.90;;;;;;5002911;28;20054;-59
2021/12/29 00:14:52;;;;;;;0.00;0.00;;;5.20;99.90;;;;;;5002460;28;20089;-58
2021/12/29 00:17:17;;;;;;;0.00;0.00;;;5.20;99.90;;;;;;5002158;28;20075;-58
2021/12/29 00:19:43;;;;;;;0.00;0.00;;;5.20;99.90;;;;;;5002781;28;20145;-59
2021/12/29 00:22:09;;;;;;;0.00;0.00;;;5.20;99.90;;;;;;5034588;28;20119;-59
2021/12/29 00:24:34;;;;;;;0.00;0.00;;;5.20;99.90;;;;;;5000894;28;20042;-58
2021/12/29 00:27:00;;;;;;;0.00;0.00;;;5.20;99.90;;;;;;5002843;28;20141;-59
2021/12/29 00:29:25;;;;;;;0.00;0.00;;;5.20;99.90;;;;;;5013219;28;20057;-59
2021/12/29 00:31:51;;;;;;;0.00;0.00;;;5.20;99.90;;;;;;5002465;28;20053;-59
2021/12/29 00:34:17;;;;;;;0.00;0.00;;;5.20;99.90;;;;;;5002879;28;20045;-58
2021/12/29 00:36:42;;;;;;;0.00;0.00;;;5.30;99.90;;;;;;5002562;28;20124;-58
2021/12/29 00:39:08;;;;;;;0.00;0.00;;;5.30;99.90;;;;;;5001883;28;20060;-59
2021/12/29 00:41:34;;;;;;;0.00;0.00;;;5.30;99.90;;;;;;5003018;28;20057;-58
2021/12/29 00:44:00;;;;;;;0.00;0.00;;;5.30;99.90;;;;;;5006501;28;20038;-59
2021/12/29 00:46:25;;;;;;;0.00;0.00;;;5.30;99.90;;;;;;5006013;28;20050;-58
2021/12/29 00:48:51;;;;;;;0.00;0.00;;;5.30;99.90;;;;;;5006547;28;20046;-59
2021/12/29 00:51:17;;;;;;;0.00;0.00;;;5.30;99.90;;;;;;5005677;28;20053;-58
2021/12/29 00:53:43;;;;;;;0.00;0.00;;;5.30;99.90;;;;;;5005445;28;20053;-58
2021/12/29 00:56:09;;;;;;;0.00;0.00;;;5.40;99.90;;;;;;5006298;28;20116;-59
2021/12/29 00:58:35;;;;;;;0.00;0.00;;;5.30;99.90;;;;;;5006253;28;20046;-59
2021/12/29 01:01:02;;;;;;;0.00;0.00;;;5.70;99.90;;;;;;5006597;28;20110;-59
2021/12/29 01:03:28;;;;;;;0.00;0.00;;;5.30;99.90;;;;;;5004862;28;20042;-59
2021/12/29 01:05:54;;;;;;;0.00;0.00;;;5.30;99.90;;;;;;5006057;28;20054;-59
2021/12/29 01:08:20;;;;;;;0.00;0.00;;;5.30;99.90;;;;;;5005912;28;20091;-59
2021/12/29 01:10:47;;;;;;;0.00;0.00;;;5.30;99.90;;;;;;5005289;28;20046;-59
2021/12/29 01:13:18;;;;;;;0.00;0.00;;;5.40;99.90;;;;;;5004058;28;20609;-59
2021/12/29 01:18:29;;;;;;;0.00;0.00;;;5.30;99.90;;;;;;5006184;28;20119;-59
2021/12/29 01:20:56;;;;;;;0.00;0.00;;;5.30;99.90;;;;;;5005236;28;20042;-59
2021/12/29 01:23:23;;;;;;;0.00;0.00;;;5.40;99.90;;;;;;5005927;28;20546;-58
2021/12/29 01:25:48;;;;;;;0.00;0.00;;;5.30;99.90;;;;;;5004517;28;20393;-58
2021/12/29 01:28:14;;;;;;;0.00;0.00;;;5.30;99.90;;;;;;5007853;28;20045;-59
2021/12/29 01:30:40;;;;;;;0.00;0.00;;;5.30;99.90;;;;;;5016135;28;20049;-59
2021/12/29 01:33:06;;;;;;;0.00;0.00;;;5.20;99.90;;;;;;5024170;28;20041;-59
2021/12/29 01:35:33;;;;;;;0.00;0.00;;;5.20;99.90;;;;;;5025748;28;20057;-58
2021/12/29 01:38:00;;;;;;;0.00;0.00;;;5.50;99.90;;;;;;5025393;28;20064;-59
2021/12/29 01:40:27;;;;;;;0.00;0.00;;;5.20;99.90;;;;;;5024327;28;20229;-59
2021/12/29 01:42:52;;;;;;;0.00;0.00;;;5.20;99.90;;;;;;5024741;28;20049;-59
2021/12/29 01:45:18;;;;;;;0.00;0.00;;;5.20;99.90;;;;;;5024957;28;20145;-59
2021/12/29 01:47:44;;;;;;;0.00;0.00;;;5.20;99.90;;;;;;5024789;28;20065;-59
2021/12/29 01:50:11;;;;;;;0.00;0.00;;;5.20;99.90;;;;;;5023545;28;20053;-59
2021/12/29 01:52:39;;;;;;;0.00;0.00;;;5.20;99.90;;;;;;5024430;28;20539;-59
2021/12/29 01:55:08;;;;;;;0.00;0.00;;;5.20;99.90;;;;;;5021829;28;20133;-59
2021/12/29 01:57:34;;;;;;;0.00;0.00;;;5.40;99.90;;;;;;5023538;28;20124;-59
2021/12/29 02:00:00;;;;;;;0.00;0.00;;;5.20;99.90;;;;;;5025089;28;20456;-59
2021/12/29 02:02:26;;;;;;;0.00;0.00;;;5.10;99.90;;;;;;5024249;28;20702;-59
2021/12/29 02:04:52;;;;;;;0.00;0.00;;;5.20;99.90;;;;;;5024454;28;20092;-59
2021/12/29 02:07:17;;;;;;;0.00;0.00;;;5.10;99.90;;;;;;5023196;28;20161;-58
2021/12/29 02:09:43;;;;;;;0.00;0.00;;;5.10;99.90;;;;;;5022556;28;20045;-59
2021/12/29 02:12:09;;;;;;;0.00;0.00;;;5.20;99.90;;;;;;5024477;28;20088;-59
2021/12/29 02:14:35;;;;;;;0.00;0.00;;;5.20;99.90;;;;;;5023672;28;20045;-59
2021/12/29 02:17:01;;;;;;;0.00;0.00;;;5.20;99.90;;;;;;5024766;28;20076;-59
2021/12/29 02:19:27;;;;;;;0.00;0.00;;;5.70;99.90;;;;;;5024526;28;20092;-59
2021/12/29 02:22:02;;;;;;;0.00;0.00;;;5.30;99.90;;;;;;5006297;28;20069;-59
2021/12/29 02:24:42;;;;;;;;;;;5.30;99.90;;;;;;4986682;28;20129;-59
2021/12/29 02:27:11;;;;;;;0.00;0.00;;;6.90;99.90;;;;;;5019756;28;19921;-59
2021/12/29 02:29:40;;;;;;;0.00;0.00;;;5.50;99.90;;;;;;5012440;28;20108;-58
2021/12/29 02:32:06;;;;;;;0.00;0.00;;;5.40;99.90;;;;;;5023526;28;20044;-59
2021/12/29 02:34:33;;;;;;;0.00;0.00;;;5.40;99.90;;;;;;5024329;28;20045;-58
2021/12/29 02:37:02;;;;;;;0.00;0.00;;;6.30;99.90;;;;;;5024356;28;20099;-59
2021/12/29 02:39:31;;;;;;;0.00;0.00;;;5.40;99.90;;;;;;5023790;28;20048;-59
2021/12/29 02:41:56;;;;;;;0.00;0.00;;;5.50;99.90;;;;;;5023202;28;20560;-59
2021/12/29 02:44:27;;;;;;;0.00;0.00;;;5.50;99.90;;;;;;5023952;28;20089;-60
2021/12/29 02:46:58;;;;;;;0.00;0.00;;;5.50;99.90;;;;;;5023770;28;20049;-59
2021/12/29 02:49:25;;;;;;;0.00;0.00;;;5.50;99.90;;;;;;5023540;28;20084;-59
2021/12/29 02:51:51;;;;;;;0.00;0.00;;;5.50;99.90;;;;;;5023372;28;20586;-59
2021/12/29 02:54:17;;;;;;;0.00;0.00;;;5.50;99.90;;;;;;5023170;28;20037;-59
2021/12/29 02:56:48;;;;;;;0.00;0.00;;;5.50;99.90;;;;;;5023712;28;20573;-61
2021/12/29 02:59:15;;;;;;;0.00;0.00;;;5.50;99.90;;;;;;5005772;28;20045;-59
2021/12/29 03:01:42;;;;;;;0.00;0.00;;;5.50;99.90;;;;;;5022836;28;20128;-56
2021/12/29 03:04:08;;;;;;;0.00;0.00;;;5.50;99.90;;;;;;5023918;28;20100;-59
2021/12/29 03:06:34;;;;;;;0.00;0.00;;;6.90;99.90;;;;;;5022599;28;20038;-60
2021/12/29 03:09:04;;;;;;;0.00;0.00;;;5.50;99.90;;;;;;5023158;28;20057;-59
2021/12/29 03:11:29;;;;;;;0.00;0.00;;;5.60;99.90;;;;;;5023476;28;20041;-60
2021/12/29 03:13:55;;;;;;;0.00;0.00;;;5.60;99.90;;;;;;5023008;28;20128;-60
2021/12/29 03:16:21;;;;;;;0.00;0.00;;;5.50;99.90;;;;;;5023340;28;20115;-60
2021/12/29 03:18:46;;;;;;;0.00;0.00;;;5.50;99.90;;;;;;5023557;28;20037;-60
2021/12/29 03:21:12;;;;;;;0.00;0.00;;;5.50;99.90;;;;;;5023647;28;20229;-60
2021/12/29 03:23:39;;;;;;;0.00;0.00;;;5.50;99.90;;;;;;5022367;28;20063;-59
2021/12/29 03:26:06;;;;;;;0.00;0.00;;;5.60;99.90;;;;;;5023115;28;20044;-59
2021/12/29 03:28:33;;;;;;;0.00;0.00;;;5.50;99.90;;;;;;5017396;28;20041;-59
2021/12/29 03:30:59;;;;;;;0.00;0.00;;;5.60;99.90;;;;;;5009586;28;20049;-59
2021/12/29 03:33:28;;;;;;;0.00;0.00;;;5.50;99.90;;;;;;5002668;28;20038;-60
2021/12/29 03:36:00;;;;;;;0.00;0.00;;;5.50;99.90;;;;;;5003470;28;20041;-60
2021/12/29 03:38:27;;;;;;;0.00;0.00;;;5.60;99.90;;;;;;5002429;28;20554;-59
2021/12/29 03:40:54;;;;;;;0.00;0.00;;;5.50;99.90;;;;;;5003265;28;20748;-59
2021/12/29 03:43:20;;;;;;;0.00;0.00;;;7.00;99.90;;;;;;5002573;28;20046;-60
2021/12/29 03:45:50;;;;;;;0.00;0.00;;;5.50;99.90;;;;;;5003312;28;20042;-59
2021/12/29 03:48:16;;;;;;;0.00;0.00;;;5.50;99.90;;;;;;5003100;28;20054;-60
2021/12/29 03:50:42;;;;;;;0.00;0.00;;;5.60;99.90;;;;;;5003143;28;20501;-60
2021/12/29 03:53:09;;;;;;;0.00;0.00;;;5.60;99.90;;;;;;5002237;28;20556;-59
2021/12/29 03:55:35;;;;;;;0.00;0.00;;;5.60;99.90;;;;;;5003192;28;20132;-60
2021/12/29 03:58:00;;;;;;;0.00;0.00;;;5.60;99.90;;;;;;5003143;28;20184;-60
2021/12/29 04:00:26;;;;;;;0.00;0.00;;;6.00;99.90;;;;;;5003181;28;20448;-59
2021/12/29 04:02:52;;;;;;;0.00;0.00;;;5.70;99.90;;;;;;5001816;28;20085;-60
2021/12/29 04:05:20;;;;;;;0.00;0.00;;;5.80;99.90;;;;;;5001163;28;20125;-59
2021/12/29 04:07:47;;;;;;;0.00;0.00;;;6.00;99.90;;;;;;5001623;28;20492;-59
2021/12/29 04:10:13;;;;;;;0.00;0.00;;;5.80;99.90;;;;;;5002144;28;20050;-59
2021/12/29 04:12:40;;;;;;;0.00;0.00;;;5.80;99.90;;;;;;5002794;28;20058;-60
2021/12/29 04:15:07;;;;;;;0.00;0.00;;;5.90;99.90;;;;;;5002240;28;20054;-59
2021/12/29 04:17:36;;;;;;;0.00;0.00;;;5.90;99.90;;;;;;5004779;28;20093;-60
2021/12/29 04:22:48;;;;;;;0.00;0.00;;;5.90;99.90;;;;;;5006154;28;20054;-60
2021/12/29 04:25:14;;;;;;;0.00;0.00;;;6.00;99.90;;;;;;5005914;28;20107;-60
2021/12/29 04:27:40;;;;;;;0.00;0.00;;;6.00;99.90;;;;;;5008919;28;20610;-60
2021/12/29 04:30:06;;;;;;;0.00;0.00;;;6.40;99.90;;;;;;5015597;28;20164;-60
2021/12/29 04:32:31;;;;;;;0.00;0.00;;;6.00;99.90;;;;;;5007169;28;20049;-60
2021/12/29 04:34:57;;;;;;;0.00;0.00;;;6.00;99.90;;;;;;5006279;28;20535;-60
2021/12/29 04:37:24;;;;;;;0.00;0.00;;;6.00;99.90;;;;;;5006690;28;20475;-59
2021/12/29 04:39:49;;;;;;;0.00;0.00;;;6.00;99.90;;;;;;5005729;28;20050;-59
2021/12/29 04:42:15;;;;;;;0.00;0.00;;;6.10;99.90;;;;;;5006534;28;20072;-59
2021/12/29 04:44:40;;;;;;;0.00;0.00;;;6.10;99.90;;;;;;5004309;28;20121;-59
2021/12/29 04:47:07;;;;;;;0.00;0.00;;;6.10;99.90;;;;;;5006358;28;20042;-60
2021/12/29 04:49:40;;;;;;;0.00;0.00;;;6.10;99.90;;;;;;5006272;28;20433;-60
2021/12/29 04:52:07;;;;;;;0.00;0.00;;;6.10;99.90;;;;;;5006067;28;20049;-60
2021/12/29 04:54:33;;;;;;;0.00;0.00;;;6.10;99.90;;;;;;5005099;28;20054;-59
2021/12/29 04:57:00;;;;;;;0.00;0.00;;;6.20;99.90;;;;;;4988698;28;20046;-60
2021/12/29 04:59:27;;;;;;;0.00;0.00;;;6.10;99.90;;;;;;5005920;28;20037;-60
2021/12/29 05:01:54;;;;;;;0.00;0.00;;;6.10;99.90;;;;;;5006099;28;20060;-60
2021/12/29 05:04:22;;;;;;;0.00;0.00;;;6.10;99.90;;;;;;5005735;28;20092;-60
2021/12/29 05:09:34;;;;;;;;;;;6.10;99.90;;;;;;5005968;28;20045;-60
2021/12/29 05:12:01;;;;;;;0.00;0.00;;;6.10;99.90;;;;;;5006288;28;20284;-59
2021/12/29 05:14:27;;;;;;;0.00;0.00;;;6.70;99.90;;;;;;5021045;28;20050;-59
2021/12/29 05:16:53;;;;;;;0.00;0.00;;;6.10;99.90;;;;;;5005568;28;20046;-59
2021/12/29 05:19:19;;;;;;;0.00;0.00;;;6.10;99.90;;;;;;5004659;28;20053;-59
2021/12/29 05:21:44;;;;;;;0.00;0.00;;;6.20;99.90;;;;;;5004488;28;20077;-59
2021/12/29 05:24:10;;;;;;;0.00;0.00;;;6.10;99.90;;;;;;5004623;28;20042;-59
2021/12/29 05:26:36;;;;;;;0.00;0.00;;;6.10;99.90;;;;;;5005736;28;20618;-60
2021/12/29 05:29:02;;;;;;;0.00;0.00;;;6.10;99.90;;;;;;5013730;28;20090;-60
2021/12/29 05:31:28;;;;;;;0.00;0.00;;;6.10;99.90;;;;;;5006602;28;20052;-60
2021/12/29 05:33:55;;;;;;;0.00;0.00;;;6.10;99.90;;;;;;5004003;28;20408;-59
2021/12/29 05:36:21;;;;;;;0.00;0.00;;;6.10;99.90;;;;;;5005224;28;20045;-59
2021/12/29 05:38:47;;;;;;;0.00;0.00;;;7.00;99.90;;;;;;5003983;28;20119;-60
2021/12/29 05:41:13;;;;;;;0.00;0.00;;;6.20;99.90;;;;;;5005596;28;20081;-60
2021/12/29 05:43:38;;;;;;;0.00;0.00;;;6.10;99.90;;;;;;5005511;28;20038;-60
2021/12/29 05:46:04;;;;;;;0.00;0.00;;;6.10;99.90;;;;;;5004644;28;20100;-59
2021/12/29 05:48:30;;;;;;;0.00;0.00;;;6.10;99.90;;;;;;5005416;28;20676;-60
2021/12/29 05:50:56;;;;;;;0.00;0.00;;;6.10;99.90;;;;;;5005142;28;20080;-59
2021/12/29 05:53:22;;;;;;;0.00;0.00;;;6.20;99.90;;;;;;5004423;28;20045;-60
2021/12/29 05:55:47;;;;;;;0.10;0.10;;;6.70;99.90;;;;;;5005028;28;20547;-60
2021/12/29 05:58:13;;;;;;;0.00;0.00;;;6.20;99.90;;;;;;5003428;28;20046;-60
2021/12/29 06:00:40;;;;;;;0.00;0.00;;;6.20;99.90;;;;;;5005020;28;20050;-60
2021/12/29 06:03:07;;;;;;;0.00;0.00;;;6.20;99.90;;;;;;5020459;28;20050;-61
2021/12/29 06:05:33;;;;;;;0.00;0.00;;;6.20;99.90;;;;;;5005133;28;20038;-60
2021/12/29 06:07:58;;;;;;;0.00;0.00;;;6.20;99.90;;;;;;5004163;28;20046;-60
2021/12/29 06:10:24;;;;;;;0.00;0.00;;;6.20;99.90;;;;;;5004901;28;20460;-59
2021/12/29 06:12:50;;;;;;;0.00;0.00;;;6.20;99.90;;;;;;5004960;28;20042;-59
2021/12/29 06:15:16;;;;;;;0.00;0.00;;;6.20;99.90;;;;;;5004667;28;20089;-60
2021/12/29 06:17:42;;;;;;;0.00;0.00;;;6.20;99.90;;;;;;5004552;28;20350;-59
2021/12/29 06:20:10;;;;;;;0.00;0.00;;;6.30;99.90;;;;;;5004371;28;20320;-60
2021/12/29 06:22:36;;;;;;;0.00;0.00;;;6.20;99.90;;;;;;5004625;28;20097;-60
2021/12/29 06:25:04;;;;;;;0.00;0.00;;;6.20;99.90;;;;;;5004000;28;20052;-60
2021/12/29 06:27:31;;;;;;;0.00;0.00;;;6.20;99.90;;;;;;5005172;28;20518;-59
2021/12/29 06:29:57;;;;;;;0.00;0.00;;;6.20;99.90;;;;;;5012607;28;20038;-60
2021/12/29 06:32:23;;;;;;;0.00;0.00;;;6.30;99.90;;;;;;5004207;28;20077;-59
2021/12/29 06:34:48;;;;;;;0.00;0.00;;;6.30;99.90;;;;;;5004569;28;20045;-59
2021/12/29 06:37:15;;;;;;;0.00;0.00;;;6.30;99.90;;;;;;5004347;28;20045;-59
2021/12/29 06:39:42;;;;;;;0.00;0.00;;;6.30;99.90;;;;;;5003058;28;20052;-58
2021/12/29 06:42:08;;;;;;;0.00;0.00;;;6.30;99.90;;;;;;5004250;28;20050;-60
2021/12/29 06:44:35;;;;;;;0.00;0.00;;;6.30;99.90;;;;;;5019557;28;20038;-59
2021/12/29 06:47:01;;;;;;;0.00;0.00;;;6.30;99.90;;;;;;5002899;28;20061;-60
2021/12/29 06:49:27;;;;;;;0.00;0.00;;;6.00;99.90;;;;;;5004152;28;20045;-60
2021/12/29 06:51:53;;;;;;;0.00;0.00;;;6.30;99.90;;;;;;5003586;28;20412;-59
2021/12/29 06:54:18;;;;;;;0.00;0.00;;;6.40;99.90;;;;;;5003299;28;20038;-59
2021/12/29 06:56:44;;;;;;;0.00;0.00;;;6.40;99.90;;;;;;5003840;28;20068;-59
2021/12/29 06:59:10;;;;;;;0.00;0.00;;;6.40;99.90;;;;;;5003815;28;20054;-60
2021/12/29 07:01:35;;;;;;;0.00;0.00;;;6.50;99.90;;;;;;5003786;28;20060;-59
2021/12/29 07:04:02;;;;;;;0.00;0.00;;;6.40;99.90;;;;;;5003952;28;20140;-59
2021/12/29 07:06:27;;;;;;;0.00;0.00;;;6.40;99.90;;;;;;5003973;28;20042;-59
2021/12/29 07:08:53;;;;;;;0.00;0.00;;;6.40;99.90;;;;;;5002926;28;20582;-60
2021/12/29 07:11:19;;;;;;;0.00;0.00;;;6.40;99.90;;;;;;5003987;28;20542;-60
2021/12/29 07:13:44;;;;;;;0.00;0.00;;;6.40;99.90;;;;;;5002920;28;20042;-59
2021/12/29 07:16:11;;;;;;;0.00;0.00;;;6.30;99.90;;;;;;5003508;28;20129;-60
2021/12/29 07:18:37;;;;;;;0.00;0.00;;;6.30;99.90;;;;;;5003830;28;20467;-60
2021/12/29 07:21:03;;;;;;;0.00;0.00;;;6.40;99.90;;;;;;5003340;28;20049;-60
2021/12/29 07:23:29;;;;;;;0.00;0.00;;;6.30;99.90;;;;;;5003207;28;20115;-60
2021/12/29 07:25:55;;;;;;;0.00;0.00;;;6.30;99.90;;;;;;5002952;28;20717;-60
2021/12/29 07:28:21;;;;;;;0.00;0.00;;;7.30;99.90;;;;;;5004923;28;20468;-60
2021/12/29 07:30:46;;;;;;;0.00;0.00;;;6.30;99.90;;;;;;5001810;28;20042;-61
2021/12/29 07:33:12;;;;;;;0.00;0.00;;;7.80;99.90;;;;;;5003455;28;20578;-61
2021/12/29 07:35:38;;;;;;;0.00;0.00;;;6.20;99.90;;;;;;5003199;28;20485;-60
2021/12/29 07:38:04;;;;;;;0.00;0.00;;;7.70;99.90;;;;;;5002291;28;20125;-60
2021/12/29 07:40:30;;;;;;;0.00;0.00;;;6.20;99.90;;;;;;5002620;28;20038;-60
2021/12/29 07:42:56;;;;;;;0.00;0.00;;;6.20;99.90;;;;;;5003539;28;20092;-60
2021/12/29 07:45:24;;;;;;;0.00;0.00;;;6.70;99.90;;;;;;5003310;28;20049;-60
2021/12/29 07:47:50;;;;;;;0.00;0.00;;;6.30;99.90;;;;;;5002862;28;20056;-60
2021/12/29 07:50:18;;;;;;;0.00;0.00;;;6.50;99.90;;;;;;5001840;28;20444;-61
2021/12/29 07:52:48;;;;;;;0.00;0.00;;;6.30;99.90;;;;;;5001707;28;20061;-60
2021/12/29 07:55:17;;;;;;;0.00;0.00;;;6.30;99.90;;;;;;5003043;28;20085;-61
2021/12/29 07:57:42;;;;;;;0.00;0.00;;;6.30;99.90;;;;;;5002401;28;20072;-60
2021/12/29 08:00:09;;;;;;;0.00;0.00;;;6.30;99.90;;;;;;5003196;28;20045;-60
2021/12/29 08:02:35;;;;;;;0.00;0.00;;;6.30;99.90;;;;;;5002864;28;20069;-59
2021/12/29 08:05:03;;;;;;;0.00;0.00;;;6.20;99.90;;;;;;5003237;28;20042;-59
2021/12/29 08:07:30;;;;;;;0.00;0.00;;;6.30;99.90;;;;;;5002156;28;20045;-60
2021/12/29 08:09:56;;;;;;;0.00;0.00;;;6.30;99.90;;;;;;5002656;28;20053;-58
2021/12/29 08:12:21;;;;;;;0.00;0.00;;;6.30;99.90;;;;;;5002973;28;20050;-61
2021/12/29 08:14:48;;;;;;;0.00;0.00;;;6.30;99.90;;;;;;5002590;28;20050;-60
2021/12/29 08:17:15;;;;;;;0.00;0.00;;;6.30;99.90;;;;;;5001283;28;20057;-60
2021/12/29 08:19:42;;;;;;;0.00;0.00;;;6.30;99.90;;;;;;5002153;28;20121;-60
2021/12/29 08:22:09;;;;;;;0.00;0.00;;;6.30;99.90;;;;;;5002814;28;20238;-60
2021/12/29 08:24:34;;;;;;;0.00;0.00;;;6.30;99.90;;;;;;5002336;28;20064;-59
2021/12/29 08:27:00;;;;;;;0.00;0.00;;;6.40;99.90;;;;;;5002888;28;20041;-60
2021/12/29 08:29:26;;;;;;;0.00;0.00;;;6.40;99.90;;;;;;5013369;28;20045;-61
2021/12/29 08:31:51;;;;;;;0.00;0.00;;;6.40;99.90;;;;;;5002827;28;20052;-59
2021/12/29 08:34:17;;;;;;;0.00;0.00;;;6.50;99.90;;;;;;5002714;28;20175;-60
2021/12/29 08:36:43;;;;;;;0.00;0.00;;;6.40;99.90;;;;;;5002410;28;20038;-60
2021/12/29 08:39:09;;;;;;;0.00;0.00;;;6.40;99.90;;;;;;5001301;28;20046;-60
2021/12/29 08:41:35;;;;;;;0.00;0.00;;;6.40;99.90;;;;;;5002851;28;20052;-60
2021/12/29 08:44:01;;;;;;;0.00;0.00;;;6.40;99.90;;;;;;5003060;28;20404;-59
2021/12/29 08:46:28;;;;;;;0.00;0.00;;;6.40;99.90;;;;;;5001245;28;20045;-60
2021/12/29 08:48:54;;;;;;;0.00;0.00;;;6.50;99.90;;;;;;5017657;28;20073;-60
2021/12/29 08:51:20;;;;;;;0.00;0.00;;;6.50;99.90;;;;;;5001958;28;20053;-59
2021/12/29 08:53:47;;;;;;;0.00;0.00;;;6.50;99.90;;;;;;5000220;28;20555;-59
2021/12/29 08:56:16;;;;;;;0.00;0.00;;;6.50;99.90;;;;;;5002510;28;20050;-61
2021/12/29 08:58:43;;;;;;;0.00;0.00;;;6.50;99.90;;;;;;5002543;28;20077;-60
2021/12/29 09:01:08;;;;;;;0.00;0.00;;;6.50;99.90;;;;;;5002273;28;20096;-60
2021/12/29 09:03:34;;;;;;;0.00;0.00;;;7.20;99.90;;;;;;5002839;28;20477;-60
2021/12/29 09:06:00;;;;;;;0.00;0.00;;;7.70;99.90;;;;;;5021695;28;20081;-60
2021/12/29 09:08:25;;;;;;;0.00;0.00;;;6.60;99.90;;;;;;5005011;28;20147;-60
2021/12/29 09:10:53;;;;;;;0.00;0.00;;;6.60;99.90;;;;;;5005995;28;20057;-60
2021/12/29 09:13:19;;;;;;;0.00;0.00;;;6.60;99.90;;;;;;5020814;28;20046;-59
2021/12/29 09:15:45;;;;;;;0.00;0.00;;;6.60;99.90;;;;;;5004246;28;20706;-59
2021/12/29 09:18:11;;;;;;;0.00;0.00;;;6.60;99.90;;;;;;5005789;28;20138;-58
2021/12/29 09:20:44;;;;;;;0.00;0.00;;;6.60;99.90;;;;;;5004856;28;20073;-58
2021/12/29 09:23:10;;;;;;;0.00;0.00;;;6.60;99.90;;;;;;5004496;28;20607;-59
2021/12/29 09:25:38;;;;;;;0.00;0.00;;;6.60;99.90;;;;;;5005974;28;20037;-59
2021/12/29 09:28:04;;;;;;;0.00;0.00;;;6.60;99.90;;;;;;5007728;28;20127;-60
2021/12/29 09:30:32;;;;;;;0.00;0.00;;;6.60;99.90;;;;;;5014736;28;20038;-59
2021/12/29 09:32:58;;;;;;;0.30;0.30;;;6.60;99.90;;;;;;5005337;28;20176;-59
2021/12/29 09:35:24;;;;;;;0.00;0.00;;;6.60;99.90;;;;;;5005167;28;20620;-60
2021/12/29 09:37:51;;;;;;;0.00;0.00;;;6.70;99.90;;;;;;5004757;28;20078;-59
2021/12/29 09:40:20;;;;;;;0.00;0.00;;;6.80;99.90;;;;;;5005325;28;20057;-57
2021/12/29 09:42:46;;;;;;;0.00;0.00;;;6.70;99.90;;;;;;5004795;28;20138;-59
2021/12/29 09:45:12;;;;;;;0.00;0.00;;;6.80;99.90;;;;;;5005409;28;20050;-59
2021/12/29 09:47:39;;;;;;;0.00;0.00;;;6.80;99.90;;;;;;5005270;28;20057;-60
2021/12/29 09:50:08;;;;;;;0.00;0.00;;;6.80;99.90;;;;;;5019980;28;20077;-60
2021/12/29 09:52:34;;;;;;;0.00;0.00;;;6.80;99.90;;;;;;5004371;28;20173;-59
2021/12/29 09:55:04;;;;;;;0.00;0.00;;;6.90;99.90;;;;;;5005327;28;20093;-59
2021/12/29 09:57:32;;;;;;;0.00;0.00;;;6.90;99.90;;;;;;5005623;28;20050;-59
2021/12/29 09:59:58;;;;;;;0.00;0.00;;;6.90;99.90;;;;;;5004087;28;20071;-59
2021/12/29 10:02:24;;;;;;;0.00;0.00;;;6.90;99.90;;;;;;5003266;28;20046;-59
2021/12/29 10:04:50;;;;;;;0.00;0.00;;;7.00;99.90;;;;;;5003073;28;20038;-59
2021/12/29 10:07:18;;;;;;;0.00;0.00;;;6.90;99.90;;;;;;5003128;28;20042;-59
2021/12/29 10:09:44;;;;;;;0.00;0.00;;;7.00;99.90;;;;;;5004893;28;20053;-60
2021/12/29 10:12:17;;;;;;;0.00;0.00;;;7.00;99.90;;;;;;5004904;28;20049;-60
2021/12/29 10:14:48;;;;;;;0.00;0.00;;;7.00;99.90;;;;;;5003737;28;20054;-59
2021/12/29 10:17:14;;;;;;;0.00;0.00;;;7.00;99.90;;;;;;5004685;28;20104;-59
2021/12/29 10:19:39;;;;;;;0.00;0.00;;;7.30;99.90;;;;;;5004567;28;20049;-59
2021/12/29 10:22:05;;;;;;;0.00;0.00;;;7.00;99.90;;;;;;5003816;28;20069;-59
2021/12/29 10:24:31;;;;;;;0.03;0.03;;;7.10;99.90;;;;;;5004615;28;20084;-59
2021/12/29 10:26:58;;;;;;;0.00;0.00;;;7.00;99.90;;;;;;5004330;28;20046;-60
2021/12/29 10:29:26;;;;;;;0.00;0.00;;;7.10;99.90;;;;;;5015289;28;20079;-59
2021/12/29 10:32:02;;;;;;;0.00;0.00;;;7.30;99.90;;;;;;5004068;28;20465;-59
2021/12/29 10:34:29;;;;;;;0.20;0.20;;;7.10;99.90;;;;;;5004747;28;20050;-59
2021/12/29 10:36:58;;;;;;;0.00;0.00;;;7.20;99.90;;;;;;5004524;28;20125;-59
2021/12/29 10:39:36;;;;;;;0.00;0.00;;;7.10;99.90;;;;;;5003570;28;20061;-59
2021/12/29 10:42:19;;;;;;;0.00;0.00;;;7.20;99.90;;;;;;5003829;28;20049;-59
2021/12/29 10:44:48;;;;;;;0.00;0.00;;;7.10;99.90;;;;;;5004166;28;20049;-58
2021/12/29 10:47:23;;;;;;;0.00;0.00;;;7.20;99.90;;;;;;5004150;28;20084;-59
2021/12/29 10:50:04;;;;;;;0.00;0.00;;;7.20;99.90;;;;;;5003913;28;20077;-59
2021/12/29 10:52:33;;;;;;;0.00;0.00;;;7.20;99.90;;;;;;5003857;28;20436;-59
2021/12/29 10:55:00;;;;;;;0.00;0.00;;;7.20;99.90;;;;;;5004422;28;20054;-59
2021/12/29 10:57:26;;;;;;;0.10;0.10;;;7.50;99.90;;;;;;5007543;28;20037;-59
2021/12/29 10:59:57;;;;;;;0.00;0.00;;;7.30;99.90;;;;;;5023576;28;20518;-60
2021/12/29 11:02:29;;;;;;;0.00;0.00;;;7.30;99.90;;;;;;5023625;28;20042;-59
2021/12/29 11:05:00;;;;;;;0.00;0.00;;;7.40;99.90;;;;;;5023197;28;20077;-59
2021/12/29 11:07:28;;;;;;;0.25;0.25;;;7.40;99.90;;;;;;5022859;28;20141;-59
2021/12/29 11:09:55;;;;;;;0.35;0.35;;;7.40;99.90;;;;;;5022300;28;20480;-59
2021/12/29 11:12:23;;;;;;;0.00;0.00;;;7.40;99.90;;;;;;5023479;28;20049;-59
2021/12/29 11:14:53;;;;;;;0.00;0.00;;;7.60;99.90;;;;;;5022698;28;20045;-62
2021/12/29 11:17:25;;;;;;;0.30;0.25;;;7.40;99.90;;;;;;5023087;28;20060;-70
2021/12/29 11:19:56;;;;;;;0.47;0.47;;;7.40;99.90;;;;;;5021377;28;20120;-70
2021/12/29 11:22:25;;;;;;;0.00;0.00;;;7.40;99.90;;;;;;5037196;28;20377;-70
2021/12/29 11:24:59;;;;;;;0.00;0.00;;;7.40;99.90;;;;;;5004785;28;20124;-70
2021/12/29 11:27:26;;;;;;;0.00;0.00;;;7.40;99.90;;;;;;5020145;28;20132;-70
2021/12/29 11:29:53;;;;;;;0.00;0.00;;;7.40;99.90;;;;;;5010342;28;20049;-70
2021/12/29 11:32:23;;;;;;;0.20;0.20;;;8.20;99.90;;;;;;5020611;28;20049;-70
2021/12/29 11:35:14;;;;;;;0.00;0.00;;;7.40;99.90;;;;;;5004589;28;20051;-70
2021/12/29 11:37:49;;;;;;;0.00;0.00;;;7.40;99.90;;;;;;5004341;28;20512;-69
2021/12/29 11:40:18;;;;;;;0.00;0.00;;;7.50;99.90;;;;;;5021671;28;20397;-70
2021/12/29 11:42:44;;;;;;;0.00;0.00;;;7.50;99.90;;;;;;5021100;28;20049;-70
2021/12/29 11:45:11;;;;;;;0.38;0.38;;;8.10;99.90;;;;;;5021235;28;20467;-70
2021/12/29 11:47:37;;;;;;;0.00;0.00;;;7.40;99.90;;;;;;5022164;28;20049;-70
2021/12/29 11:50:05;;;;;;;0.00;0.00;;;7.50;99.90;;;;;;5022142;28;20099;-69
2021/12/29 11:52:45;;;;;;;0.00;0.00;;;7.50;99.90;;;;;;5020798;28;20085;-70
2021/12/29 11:55:19;;;;;;;0.00;0.00;;;7.40;99.90;;;;;;5020915;28;20057;-71
2021/12/29 11:57:46;;;;;;;0.00;0.00;;;7.40;99.90;;;;;;5004211;28;20064;-71
2021/12/29 12:00:23;;;;;;;0.00;0.00;;;7.40;99.90;;;;;;5022039;28;20045;-70
2021/12/29 12:02:52;;;;;;;0.00;0.00;;;7.40;99.90;;;;;;5022063;28;20063;-70
2021/12/29 12:05:24;;;;;;;0.00;0.00;;;7.40;99.90;;;;;;5020621;28;20041;-71
2021/12/29 12:07:51;;;;;;;0.00;0.00;;;7.80;99.90;;;;;;5003590;28;20443;-71
2021/12/29 12:10:35;;;;;;;0.00;0.00;;;7.40;99.90;;;;;;5021097;28;20041;-70
2021/12/29 12:13:05;;;;;;;0.00;0.00;;;7.40;99.90;;;;;;5004403;28;20064;-70
2021/12/29 12:15:34;;;;;;;0.00;0.00;;;8.30;99.90;;;;;;5021031;28;20059;-71
2021/12/29 12:18:06;;;;;;;0.00;0.00;;;7.40;99.90;;;;;;5021059;28;20050;-70
2021/12/29 12:21:01;;;;;;;0.00;0.00;;;7.40;99.90;;;;;;5020604;28;20053;-70
2021/12/29 12:23:29;;;;;;;0.00;0.00;;;7.40;99.90;;;;;;5015134;28;20049;-70
2021/12/29 12:26:08;;;;;;;0.00;0.00;;;7.40;99.90;;;;;;5020403;28;20457;-71
2021/12/29 12:28:44;;;;;;;0.00;0.00;;;7.40;99.90;;;;;;5000921;28;20060;-71
2021/12/29 12:31:22;;;;;;;0.00;0.00;;;7.40;99.90;;;;;;5017551;28;20049;-64
2021/12/29 12:33:48;;;;;;;0.55;0.55;;;7.50;99.90;;;;;;5022068;28;20050;-65
2021/12/29 12:36:14;;;;;;;0.00;0.00;;;7.60;99.90;;;;;;5022337;28;20037;-66
2021/12/29 12:38:39;;;;;;;0.00;0.00;;;7.60;99.90;;;;;;5022676;28;20045;-66
2021/12/29 12:41:14;;;;;;;0.00;0.00;;;7.70;99.90;;;;;;5025775;28;20054;-66
2021/12/29 12:43:53;;;;;;;0.00;0.00;;;7.60;99.90;;;;;;5026037;28;20060;-63
2021/12/29 12:46:37;;;;;;;0.00;0.00;;;7.50;99.90;;;;;;5026192;28;20056;-67
2021/12/29 12:49:20;;;;;;;0.00;0.00;;;7.50;99.90;;;;;;5025733;28;20049;-64
2021/12/29 12:52:08;;;;;;;0.00;0.00;;;7.50;99.90;;;;;;5025359;28;20048;-64
2021/12/29 12:54:36;;;;;;;0.00;0.00;;;7.50;99.90;;;;;;5025836;28;20046;-64
2021/12/29 12:57:03;;;;;;;0.00;0.00;;;7.50;99.90;;;;;;5026212;28;20045;-62
2021/12/29 12:59:41;;;;;;;0.00;0.00;;;7.50;99.90;;;;;;5026322;28;20531;-63
2021/12/29 13:02:25;;;;;;;0.00;0.00;;;7.50;99.90;;;;;;5025171;28;20045;-62
2021/12/29 13:05:01;;;;;;;0.00;0.00;;;7.50;99.90;;;;;;5025942;28;20408;-63
2021/12/29 13:07:27;;;;;;;0.00;0.00;;;7.50;99.90;;;;;;5025334;28;20068;-63